Pont Aven — FNPN — position and weather

sailwx.info

Track history (hours):
 
Tides and Currents Weather Stations Pressure Air Temp Water Temp Dewpoint Dewpoint Depression Visibility Wind Speed Wind Dir Waves Ship Positions

Pont Aven

Last reported at 2017-Nov-23 17:21 UTC. Time now 2017-Nov-23 22:29 UTC.
Position N 43°27' W 003°50'.

Length 185 m; beam 31 m.

Type: Passenger vessel. MMSI: 228183600.

Date/timePositionNaut miles runAvg speedWind from/ knotsBaromVisibWave heightAir tempDewpointWater temp
2017-Nov-23 17:21N 43°27' W 003°50'1 1.6
2017-Nov-23 16:57N 43°27' W 003°49'511.0
2017-Nov-23 16:30N 43°31' W 003°45'1020.2
2017-Nov-23 16:00N 43°41' W 003°47'1121.1
2017-Nov-23 15:31N 43°51' W 003°49'1223.4
2017-Nov-23 15:01N 44°03' W 003°51'21922.6
2017-Nov-23 05:21N 47°39' W 004°35'721.4
2017-Nov-23 05:01N 47°46' W 004°38'1121.4
2017-Nov-23 04:30N 47°57' W 004°42'816.7
2017-Nov-23 04:01N 48°05' W 004°46'1020.3
2017-Nov-23 03:31N 48°15' W 004°46'816.3
2017-Nov-23 03:00N 48°23' W 004°49'714.8
2017-Nov-23 02:30N 48°30' W 004°52'816.8
2017-Nov-23 02:00N 48°37' W 004°46'1019.3
2017-Nov-23 01:31N 48°42' W 004°33'1121.0
2017-Nov-23 01:01N 48°45' W 004°18'1020.7
2017-Nov-23 00:30N 48°47' W 004°03'  
2017-Nov-20 00:30N 47°16' W 004°56'1122.1
2017-Nov-20 00:01N 47°26' W 004°60'1222.4
2017-Nov-19 23:29N 47°38' W 005°04'1122.7
2017-Nov-19 23:00N 47°48' W 005°07'1123.0
2017-Nov-19 22:30N 47°60' W 005°11'1223.5
2017-Nov-19 22:01N 48°11' W 005°10'1223.8
2017-Nov-19 21:31N 48°23' W 005°06'817.0
2017-Nov-19 21:01N 48°29' W 004°57'1224.4
2017-Nov-19 20:31N 48°39' W 004°45'1223.9
2017-Nov-19 20:01N 48°47' W 004°33'1323.1
2017-Nov-19 19:28N 48°57' W 004°20'1422.2
2017-Nov-19 18:49N 49°06' W 004°04'2721.4
2017-Nov-19 17:33N 49°25' W 003°34'321.8
2017-Nov-19 17:23N 49°28' W 003°30'1022.0
2017-Nov-19 16:55N 49°35' W 003°19'1022.8
2017-Nov-19 16:29N 49°44' W 003°12'1123.5
2017-Nov-19 16:00N 49°53' W 003°01'1324.3
2017-Nov-19 15:27N 50°02' W 002°46'1125.2
2017-Nov-19 15:01N 50°06' W 002°30'5725.7
2017-Nov-19 12:48N 50°34' W 001°13'723.1
2017-Nov-19 12:30N 50°39' W 001°05'714.5
2017-Nov-19 12:00N 50°46' W 001°05'3 5.3
2017-Nov-19 11:30N 50°49' W 001°06'0 0.0
2017-Nov-19 11:00N 50°49' W 001°06'0 0.0
2017-Nov-19 10:30N 50°49' W 001°06'0 0.0
2017-Nov-19 10:00N 50°49' W 001°06'0 0.0
2017-Nov-19 09:30N 50°49' W 001°06'0 0.0
2017-Nov-19 09:00N 50°49' W 001°06'0 0.0
2017-Nov-19 08:30N 50°49' W 001°06'0 0.0
2017-Nov-19 08:00N 50°49' W 001°06'0 0.1
2017-Nov-19 07:30N 50°49' W 001°06'3 5.5
2017-Nov-19 07:01N 50°46' W 001°05'714.3
2017-Nov-19 06:30N 50°41' W 000°58'816.6
2017-Nov-19 06:01N 50°34' W 001°05'816.3
2017-Nov-19 05:30N 50°27' W 001°12'1215.0
2017-Nov-19 04:41N 50°16' W 001°23'314.2
2017-Nov-19 04:30N 50°15' W 001°26'713.7
2017-Nov-19 04:00N 50°09' W 001°33'714.3
2017-Nov-19 03:30N 50°04' W 001°40'714.5
2017-Nov-19 03:00N 49°58' W 001°46'714.0
2017-Nov-19 02:30N 49°52' W 001°52'713.5
2017-Nov-19 02:00N 49°47' W 001°58'1112.0
2017-Nov-19 01:03N 49°37' W 002°06'114.4
2017-Nov-19 00:59N 49°36' W 002°07'814.9
2017-Nov-19 00:27N 49°29' W 002°13'715.6
2017-Nov-19 00:00N 49°22' W 002°18'1015.8
2017-Nov-18 23:24N 49°14' W 002°24'27 3.1
2017-Nov-18 14:39N 48°47' W 002°14'1 2.5
2017-Nov-18 14:21N 48°48' W 002°15'1 1.9
2017-Nov-18 13:43N 48°48' W 002°16'1 1.2
2017-Nov-18 13:14N 48°49' W 002°16'0 0.8
2017-Nov-18 12:54N 48°49' W 002°16'1 1.1
2017-Nov-18 11:54N 48°50' W 002°15'1 1.9
2017-Nov-18 11:23N 48°50' W 002°13'1 2.9
2017-Nov-18 10:58N 48°49' W 002°12'713.1
2017-Nov-18 10:28N 48°44' W 002°06'512.1
2017-Nov-18 10:00N 48°39' W 002°03'1 1.4
2017-Nov-18 09:30N 48°38' W 002°02'3 1.1
2017-Nov-18 06:45N 48°40' W 002°05'513.9
2017-Nov-18 06:24N 48°45' W 002°08'1116.6
2017-Nov-18 05:45N 48°52' W 002°21'3 7.4
2017-Nov-18 05:23N 48°50' W 002°17'714.0
2017-Nov-18 04:54N 48°46' W 002°09'610.7
2017-Nov-18 04:22N 48°50' W 002°16'817.4
2017-Nov-18 03:54N 48°57' W 002°22'5217.4
2017-Nov-18 00:56N 49°46' W 002°01'819.0
2017-Nov-18 00:30N 49°52' W 001°52'918.6
2017-Nov-18 00:00N 49°58' W 001°41'917.3
2017-Nov-17 23:30N 50°05' W 001°33'816.6
2017-Nov-17 23:00N 50°12' W 001°26'916.1
2017-Nov-17 22:27N 50°20' W 001°19'1315.7
2017-Nov-17 21:36N 50°32' W 001°12'215.3
2017-Nov-17 21:30N 50°34' W 001°10'714.8
2017-Nov-17 21:00N 50°40' W 001°04'612.7
2017-Nov-17 20:31N 50°46' W 001°06'3 5.0
2017-Nov-17 20:00N 50°49' W 001°06'0 0.0
2017-Nov-17 19:31N 50°49' W 001°06'0 0.0
2017-Nov-17 19:01N 50°49' W 001°06'0 0.0
2017-Nov-17 18:31N 50°49' W 001°06'0 0.0
2017-Nov-17 18:01N 50°49' W 001°06'0 0.0
2017-Nov-17 17:31N 50°49' W 001°06'0 0.0
2017-Nov-17 17:01N 50°49' W 001°06'0 0.0
2017-Nov-17 16:30N 50°49' W 001°06'0 0.0
2017-Nov-17 16:01N 50°49' W 001°06'0 0.0
2017-Nov-17 15:31N 50°49' W 001°06'0 0.0
2017-Nov-17 15:01N 50°49' W 001°06'0 0.2
2017-Nov-17 14:31N 50°49' W 001°06'3 6.0
2017-Nov-17 14:00N 50°46' W 001°05'713.2
2017-Nov-17 13:30N 50°39' W 001°05'918.5
2017-Nov-17 13:00N 50°32' W 001°13'3120.4
2017-Nov-17 11:29N 50°14' W 001°53'1121.5
2017-Nov-17 10:59N 50°06' W 002°05'11022.6
2017-Nov-17 06:07N 48°56' W 004°16'522.9
2017-Nov-17 05:53N 48°53' W 004°22'922.8
2017-Nov-17 05:30N 48°47' W 004°31'1122.5
2017-Nov-17 05:00N 48°40' W 004°44'1122.9
2017-Nov-17 04:30N 48°31' W 004°55'817.0
2017-Nov-17 04:00N 48°25' W 005°04'1122.1
2017-Nov-17 03:31N 48°14' W 005°10'1223.1
2017-Nov-17 03:01N 48°03' W 005°10'26523.0
2017-Nov-16 15:30N 43°44' W 003°49'1019.9
2017-Nov-16 15:00N 43°34' W 003°46'713.9
2017-Nov-16 14:30N 43°27' W 003°48'0 0.9
2017-Nov-16 14:00N 43°28' W 003°48'0 0.0
2017-Nov-16 13:30N 43°28' W 003°48'0 0.0
2017-Nov-16 13:00N 43°28' W 003°48'0 0.0
2017-Nov-16 12:31N 43°28' W 003°48'0 0.0
2017-Nov-16 12:00N 43°28' W 003°48'0 0.0
2017-Nov-16 11:30N 43°28' W 003°48'0 0.0
2017-Nov-16 11:00N 43°28' W 003°48'0 0.0
2017-Nov-16 10:30N 43°28' W 003°48'0 0.0
2017-Nov-16 10:00N 43°28' W 003°48'0 0.0
2017-Nov-16 09:31N 43°28' W 003°48'0 0.0
2017-Nov-16 09:00N 43°28' W 003°48'0 0.0
2017-Nov-16 08:30N 43°28' W 003°48'0 0.0
2017-Nov-16 08:00N 43°28' W 003°48'0 0.0
2017-Nov-16 07:30N 43°28' W 003°48'0 0.0
2017-Nov-16 07:00N 43°28' W 003°48'0 0.0
2017-Nov-16 06:31N 43°28' W 003°48'0 0.0
2017-Nov-16 06:01N 43°28' W 003°48'0 0.0
2017-Nov-16 05:30N 43°28' W 003°48'0 0.0
2017-Nov-16 05:00N 43°28' W 003°48'0 0.0
2017-Nov-16 04:30N 43°28' W 003°48'0 0.0
2017-Nov-16 04:00N 43°28' W 003°48'0 0.0
2017-Nov-16 03:30N 43°28' W 003°48'0 0.0
2017-Nov-16 03:00N 43°28' W 003°48'0 0.0
2017-Nov-16 02:30N 43°28' W 003°48'0 0.0
2017-Nov-16 02:01N 43°28' W 003°48'0 0.0
2017-Nov-16 01:30N 43°28' W 003°48'0 0.0
2017-Nov-16 01:00N 43°28' W 003°48'0 0.0
2017-Nov-16 00:30N 43°28' W 003°48'0 0.0
2017-Nov-16 00:00N 43°28' W 003°48'0 0.0
2017-Nov-15 23:30N 43°28' W 003°48'0 0.0
2017-Nov-15 23:00N 43°28' W 003°48'0 0.0
2017-Nov-15 22:30N 43°28' W 003°48'0 0.0
2017-Nov-15 22:00N 43°28' W 003°48'0 0.0
2017-Nov-15 21:30N 43°28' W 003°48'0 0.0
2017-Nov-15 21:00N 43°28' W 003°48'0 0.0
2017-Nov-15 20:31N 43°28' W 003°48'0 0.0
2017-Nov-15 20:00N 43°28' W 003°48'0 0.0
2017-Nov-15 19:30N 43°28' W 003°48'0 0.0
2017-Nov-15 19:00N 43°28' W 003°48'0 0.0
2017-Nov-15 18:30N 43°28' W 003°48'0 0.0
2017-Nov-15 18:00N 43°28' W 003°48'0 0.0
2017-Nov-15 17:30N 43°28' W 003°48'0 0.2
2017-Nov-15 17:00N 43°27' W 003°48'510.6
2017-Nov-15 16:30N 43°32' W 003°46'1122.3
2017-Nov-15 16:01N 43°43' W 003°49'1122.7
2017-Nov-15 15:31N 43°54' W 003°52'1522.6
2017-Nov-15 14:52N 44°09' W 003°57'17323.1
2017-Nov-15 07:23N 46°57' W 004°49'1222.8
2017-Nov-15 06:52N 47°09' W 004°52'923.4
2017-Nov-15 06:28N 47°18' W 004°54'1723.6
2017-Nov-15 05:45N 47°35' W 004°59'623.8
2017-Nov-15 05:31N 47°41' W 005°01'1224.2
2017-Nov-15 05:01N 47°52' W 005°04'1324.5
2017-Nov-15 04:30N 48°04' W 005°10'1224.1
2017-Nov-15 04:00N 48°16' W 005°08'1121.7
2017-Nov-15 03:30N 48°26' W 005°02'919.0
2017-Nov-15 03:00N 48°33' W 004°53'1122.2
2017-Nov-15 02:30N 48°42' W 004°41'1121.9
2017-Nov-15 02:00N 48°50' W 004°30'1121.8
2017-Nov-15 01:29N 48°58' W 004°18'5923.1
2017-Nov-14 22:57N 49°42' W 003°20'1324.6
2017-Nov-14 22:25N 49°51' W 003°05'1024.7
2017-Nov-14 22:01N 49°58' W 002°53'1324.7
2017-Nov-14 21:29N 50°04' W 002°35'6123.0
2017-Nov-14 18:50N 50°34' W 001°12'618.7
2017-Nov-14 18:30N 50°38' W 001°05'714.0
2017-Nov-14 18:00N 50°45' W 001°05'3 6.7
2017-Nov-14 17:31N 50°49' W 001°06'0 0.0
2017-Nov-14 17:01N 50°49' W 001°06'0 0.0
2017-Nov-14 16:30N 50°49' W 001°06'0 0.0
2017-Nov-14 16:00N 50°49' W 001°06'0 0.0
2017-Nov-14 15:30N 50°49' W 001°06'0 0.2
2017-Nov-14 15:00N 50°49' W 001°06'3 6.5
2017-Nov-14 14:31N 50°46' W 001°05'815.6
2017-Nov-14 14:01N 50°39' W 000°59'1221.6
2017-Nov-14 13:26N 50°31' W 001°14'2122.4
2017-Nov-14 12:30N 50°17' W 001°39'1122.0
2017-Nov-14 12:00N 50°11' W 001°53'1421.5
2017-Nov-14 11:22N 50°02' W 002°09'821.2
2017-Nov-14 10:58N 49°58' W 002°20'1421.5
2017-Nov-14 10:19N 49°52' W 002°40'922.0
2017-Nov-14 09:55N 49°47' W 002°51'1022.2
2017-Nov-14 09:27N 49°40' W 003°04'1022.6
2017-Nov-14 09:00N 49°34' W 003°16'1122.6
2017-Nov-14 08:30N 49°27' W 003°29'1322.7
2017-Nov-14 07:57N 49°18' W 003°43'3522.5
2017-Nov-14 06:24N 48°54' W 004°22'922.3
2017-Nov-14 06:00N 48°48' W 004°31'1122.0
2017-Nov-14 05:30N 48°40' W 004°43'1121.5
2017-Nov-14 05:00N 48°32' W 004°54'918.0
2017-Nov-14 04:30N 48°25' W 005°03'1019.8
2017-Nov-14 04:00N 48°16' W 005°09'1122.1
2017-Nov-14 03:31N 48°05' W 005°10'1121.8
2017-Nov-14 03:01N 47°54' W 005°07'1122.3
2017-Nov-14 02:30N 47°43' W 005°04'1122.6
2017-Nov-14 02:01N 47°32' W 005°01'1222.4
2017-Nov-14 01:29N 47°21' W 004°57'1123.0
2017-Nov-14 01:00N 47°11' W 004°51'4122.4
2017-Nov-13 23:12N 46°31' W 004°41'  
Track history (hours):
 
Tides and Currents Weather Stations Pressure Air Temp Water Temp Dewpoint Dewpoint Depression Visibility Wind Speed Wind Dir Waves Ship Positions

Pont Aven

Last reported at 2017-Nov-23 17:21 UTC. Time now 2017-Nov-23 22:29 UTC.
Position N 43°27' W 003°50'.

Length 185 m; beam 31 m.

Type: Passenger vessel. MMSI: 228183600.

Date/timePositionNaut miles runAvg speedWind from/ knotsBaromVisibWave heightAir tempDewpointWater temp
2017-Nov-23 17:21N 43°27' W 003°50'1 1.6
2017-Nov-23 16:57N 43°27' W 003°49'511.0
2017-Nov-23 16:30N 43°31' W 003°45'1020.2
2017-Nov-23 16:00N 43°41' W 003°47'1121.1
2017-Nov-23 15:31N 43°51' W 003°49'1223.4
2017-Nov-23 15:01N 44°03' W 003°51'21922.6
2017-Nov-23 05:21N 47°39' W 004°35'721.4
2017-Nov-23 05:01N 47°46' W 004°38'1121.4
2017-Nov-23 04:30N 47°57' W 004°42'816.7
2017-Nov-23 04:01N 48°05' W 004°46'1020.3
2017-Nov-23 03:31N 48°15' W 004°46'816.3
2017-Nov-23 03:00N 48°23' W 004°49'714.8
2017-Nov-23 02:30N 48°30' W 004°52'816.8
2017-Nov-23 02:00N 48°37' W 004°46'1019.3
2017-Nov-23 01:31N 48°42' W 004°33'1121.0
2017-Nov-23 01:01N 48°45' W 004°18'1020.7
2017-Nov-23 00:30N 48°47' W 004°03'  
2017-Nov-20 00:30N 47°16' W 004°56'1122.1
2017-Nov-20 00:01N 47°26' W 004°60'1222.4
2017-Nov-19 23:29N 47°38' W 005°04'1122.7
2017-Nov-19 23:00N 47°48' W 005°07'1123.0
2017-Nov-19 22:30N 47°60' W 005°11'1223.5
2017-Nov-19 22:01N 48°11' W 005°10'1223.8
2017-Nov-19 21:31N 48°23' W 005°06'817.0
2017-Nov-19 21:01N 48°29' W 004°57'1224.4
2017-Nov-19 20:31N 48°39' W 004°45'1223.9
2017-Nov-19 20:01N 48°47' W 004°33'1323.1
2017-Nov-19 19:28N 48°57' W 004°20'1422.2
2017-Nov-19 18:49N 49°06' W 004°04'2721.4
2017-Nov-19 17:33N 49°25' W 003°34'321.8
2017-Nov-19 17:23N 49°28' W 003°30'1022.0
2017-Nov-19 16:55N 49°35' W 003°19'1022.8
2017-Nov-19 16:29N 49°44' W 003°12'1123.5
2017-Nov-19 16:00N 49°53' W 003°01'1324.3
2017-Nov-19 15:27N 50°02' W 002°46'1125.2
2017-Nov-19 15:01N 50°06' W 002°30'5725.7
2017-Nov-19 12:48N 50°34' W 001°13'723.1
2017-Nov-19 12:30N 50°39' W 001°05'714.5
2017-Nov-19 12:00N 50°46' W 001°05'3 5.3
2017-Nov-19 11:30N 50°49' W 001°06'0 0.0
2017-Nov-19 11:00N 50°49' W 001°06'0 0.0
2017-Nov-19 10:30N 50°49' W 001°06'0 0.0
2017-Nov-19 10:00N 50°49' W 001°06'0 0.0
2017-Nov-19 09:30N 50°49' W 001°06'0 0.0
2017-Nov-19 09:00N 50°49' W 001°06'0 0.0
2017-Nov-19 08:30N 50°49' W 001°06'0 0.0
2017-Nov-19 08:00N 50°49' W 001°06'0 0.1
2017-Nov-19 07:30N 50°49' W 001°06'3 5.5
2017-Nov-19 07:01N 50°46' W 001°05'714.3
2017-Nov-19 06:30N 50°41' W 000°58'816.6
2017-Nov-19 06:01N 50°34' W 001°05'816.3
2017-Nov-19 05:30N 50°27' W 001°12'1215.0
2017-Nov-19 04:41N 50°16' W 001°23'314.2
2017-Nov-19 04:30N 50°15' W 001°26'713.7
2017-Nov-19 04:00N 50°09' W 001°33'714.3
2017-Nov-19 03:30N 50°04' W 001°40'714.5
2017-Nov-19 03:00N 49°58' W 001°46'714.0
2017-Nov-19 02:30N 49°52' W 001°52'713.5
2017-Nov-19 02:00N 49°47' W 001°58'1112.0
2017-Nov-19 01:03N 49°37' W 002°06'114.4
2017-Nov-19 00:59N 49°36' W 002°07'814.9
2017-Nov-19 00:27N 49°29' W 002°13'715.6
2017-Nov-19 00:00N 49°22' W 002°18'1015.8
2017-Nov-18 23:24N 49°14' W 002°24'27 3.1
2017-Nov-18 14:39N 48°47' W 002°14'1 2.5
2017-Nov-18 14:21N 48°48' W 002°15'1 1.9
2017-Nov-18 13:43N 48°48' W 002°16'1 1.2
2017-Nov-18 13:14N 48°49' W 002°16'0 0.8
2017-Nov-18 12:54N 48°49' W 002°16'1 1.1
2017-Nov-18 11:54N 48°50' W 002°15'1 1.9
2017-Nov-18 11:23N 48°50' W 002°13'1 2.9
2017-Nov-18 10:58N 48°49' W 002°12'713.1
2017-Nov-18 10:28N 48°44' W 002°06'512.1
2017-Nov-18 10:00N 48°39' W 002°03'1 1.4
2017-Nov-18 09:30N 48°38' W 002°02'3 1.1
2017-Nov-18 06:45N 48°40' W 002°05'513.9
2017-Nov-18 06:24N 48°45' W 002°08'1116.6
2017-Nov-18 05:45N 48°52' W 002°21'3 7.4
2017-Nov-18 05:23N 48°50' W 002°17'714.0
2017-Nov-18 04:54N 48°46' W 002°09'610.7
2017-Nov-18 04:22N 48°50' W 002°16'817.4
2017-Nov-18 03:54N 48°57' W 002°22'5217.4
2017-Nov-18 00:56N 49°46' W 002°01'819.0
2017-Nov-18 00:30N 49°52' W 001°52'918.6
2017-Nov-18 00:00N 49°58' W 001°41'917.3
2017-Nov-17 23:30N 50°05' W 001°33'816.6
2017-Nov-17 23:00N 50°12' W 001°26'916.1
2017-Nov-17 22:27N 50°20' W 001°19'1315.7
2017-Nov-17 21:36N 50°32' W 001°12'215.3
2017-Nov-17 21:30N 50°34' W 001°10'714.8
2017-Nov-17 21:00N 50°40' W 001°04'612.7
2017-Nov-17 20:31N 50°46' W 001°06'3 5.0
2017-Nov-17 20:00N 50°49' W 001°06'0 0.0
2017-Nov-17 19:31N 50°49' W 001°06'0 0.0
2017-Nov-17 19:01N 50°49' W 001°06'0 0.0
2017-Nov-17 18:31N 50°49' W 001°06'0 0.0
2017-Nov-17 18:01N 50°49' W 001°06'0 0.0
2017-Nov-17 17:31N 50°49' W 001°06'0 0.0
2017-Nov-17 17:01N 50°49' W 001°06'0 0.0
2017-Nov-17 16:30N 50°49' W 001°06'0 0.0
2017-Nov-17 16:01N 50°49' W 001°06'0 0.0
2017-Nov-17 15:31N 50°49' W 001°06'0 0.0
2017-Nov-17 15:01N 50°49' W 001°06'0 0.2
2017-Nov-17 14:31N 50°49' W 001°06'3 6.0
2017-Nov-17 14:00N 50°46' W 001°05'713.2
2017-Nov-17 13:30N 50°39' W 001°05'918.5
2017-Nov-17 13:00N 50°32' W 001°13'3120.4
2017-Nov-17 11:29N 50°14' W 001°53'1121.5
2017-Nov-17 10:59N 50°06' W 002°05'11022.6
2017-Nov-17 06:07N 48°56' W 004°16'522.9
2017-Nov-17 05:53N 48°53' W 004°22'922.8
2017-Nov-17 05:30N 48°47' W 004°31'1122.5
2017-Nov-17 05:00N 48°40' W 004°44'1122.9
2017-Nov-17 04:30N 48°31' W 004°55'817.0
2017-Nov-17 04:00N 48°25' W 005°04'1122.1
2017-Nov-17 03:31N 48°14' W 005°10'1223.1
2017-Nov-17 03:01N 48°03' W 005°10'26523.0
2017-Nov-16 15:30N 43°44' W 003°49'1019.9
2017-Nov-16 15:00N 43°34' W 003°46'713.9
2017-Nov-16 14:30N 43°27' W 003°48'0 0.9
2017-Nov-16 14:00N 43°28' W 003°48'0 0.0
2017-Nov-16 13:30N 43°28' W 003°48'0 0.0
2017-Nov-16 13:00N 43°28' W 003°48'0 0.0
2017-Nov-16 12:31N 43°28' W 003°48'0 0.0
2017-Nov-16 12:00N 43°28' W 003°48'0 0.0
2017-Nov-16 11:30N 43°28' W 003°48'0 0.0
2017-Nov-16 11:00N 43°28' W 003°48'0 0.0
2017-Nov-16 10:30N 43°28' W 003°48'0 0.0
2017-Nov-16 10:00N 43°28' W 003°48'0 0.0
2017-Nov-16 09:31N 43°28' W 003°48'0 0.0
2017-Nov-16 09:00N 43°28' W 003°48'0 0.0
2017-Nov-16 08:30N 43°28' W 003°48'0 0.0
2017-Nov-16 08:00N 43°28' W 003°48'0 0.0
2017-Nov-16 07:30N 43°28' W 003°48'0 0.0
2017-Nov-16 07:00N 43°28' W 003°48'0 0.0
2017-Nov-16 06:31N 43°28' W 003°48'0 0.0
2017-Nov-16 06:01N 43°28' W 003°48'0 0.0
2017-Nov-16 05:30N 43°28' W 003°48'0 0.0
2017-Nov-16 05:00N 43°28' W 003°48'0 0.0
2017-Nov-16 04:30N 43°28' W 003°48'0 0.0
2017-Nov-16 04:00N 43°28' W 003°48'0 0.0
2017-Nov-16 03:30N 43°28' W 003°48'0 0.0
2017-Nov-16 03:00N 43°28' W 003°48'0 0.0
2017-Nov-16 02:30N 43°28' W 003°48'0 0.0
2017-Nov-16 02:01N 43°28' W 003°48'0 0.0
2017-Nov-16 01:30N 43°28' W 003°48'0 0.0
2017-Nov-16 01:00N 43°28' W 003°48'0 0.0
2017-Nov-16 00:30N 43°28' W 003°48'0 0.0
2017-Nov-16 00:00N 43°28' W 003°48'0 0.0
2017-Nov-15 23:30N 43°28' W 003°48'0 0.0
2017-Nov-15 23:00N 43°28' W 003°48'0 0.0
2017-Nov-15 22:30N 43°28' W 003°48'0 0.0
2017-Nov-15 22:00N 43°28' W 003°48'0 0.0
2017-Nov-15 21:30N 43°28' W 003°48'0 0.0
2017-Nov-15 21:00N 43°28' W 003°48'0 0.0
2017-Nov-15 20:31N 43°28' W 003°48'0 0.0
2017-Nov-15 20:00N 43°28' W 003°48'0 0.0
2017-Nov-15 19:30N 43°28' W 003°48'0 0.0
2017-Nov-15 19:00N 43°28' W 003°48'0 0.0
2017-Nov-15 18:30N 43°28' W 003°48'0 0.0
2017-Nov-15 18:00N 43°28' W 003°48'0 0.0
2017-Nov-15 17:30N 43°28' W 003°48'0 0.2
2017-Nov-15 17:00N 43°27' W 003°48'510.6
2017-Nov-15 16:30N 43°32' W 003°46'1122.3
2017-Nov-15 16:01N 43°43' W 003°49'1122.7
2017-Nov-15 15:31N 43°54' W 003°52'1522.6
2017-Nov-15 14:52N 44°09' W 003°57'17323.1
2017-Nov-15 07:23N 46°57' W 004°49'1222.8
2017-Nov-15 06:52N 47°09' W 004°52'923.4
2017-Nov-15 06:28N 47°18' W 004°54'1723.6
2017-Nov-15 05:45N 47°35' W 004°59'623.8
2017-Nov-15 05:31N 47°41' W 005°01'1224.2
2017-Nov-15 05:01N 47°52' W 005°04'1324.5
2017-Nov-15 04:30N 48°04' W 005°10'1224.1
2017-Nov-15 04:00N 48°16' W 005°08'1121.7
2017-Nov-15 03:30N 48°26' W 005°02'919.0
2017-Nov-15 03:00N 48°33' W 004°53'1122.2
2017-Nov-15 02:30N 48°42' W 004°41'1121.9
2017-Nov-15 02:00N 48°50' W 004°30'1121.8
2017-Nov-15 01:29N 48°58' W 004°18'5923.1
2017-Nov-14 22:57N 49°42' W 003°20'1324.6
2017-Nov-14 22:25N 49°51' W 003°05'1024.7
2017-Nov-14 22:01N 49°58' W 002°53'1324.7
2017-Nov-14 21:29N 50°04' W 002°35'6123.0
2017-Nov-14 18:50N 50°34' W 001°12'618.7
2017-Nov-14 18:30N 50°38' W 001°05'714.0
2017-Nov-14 18:00N 50°45' W 001°05'3 6.7
2017-Nov-14 17:31N 50°49' W 001°06'0 0.0
2017-Nov-14 17:01N 50°49' W 001°06'0 0.0
2017-Nov-14 16:30N 50°49' W 001°06'0 0.0
2017-Nov-14 16:00N 50°49' W 001°06'0 0.0
2017-Nov-14 15:30N 50°49' W 001°06'0 0.2
2017-Nov-14 15:00N 50°49' W 001°06'3 6.5
2017-Nov-14 14:31N 50°46' W 001°05'815.6
2017-Nov-14 14:01N 50°39' W 000°59'1221.6
2017-Nov-14 13:26N 50°31' W 001°14'2122.4
2017-Nov-14 12:30N 50°17' W 001°39'1122.0
2017-Nov-14 12:00N 50°11' W 001°53'1421.5
2017-Nov-14 11:22N 50°02' W 002°09'821.2
2017-Nov-14 10:58N 49°58' W 002°20'1421.5
2017-Nov-14 10:19N 49°52' W 002°40'922.0
2017-Nov-14 09:55N 49°47' W 002°51'1022.2
2017-Nov-14 09:27N 49°40' W 003°04'1022.6
2017-Nov-14 09:00N 49°34' W 003°16'1122.6
2017-Nov-14 08:30N 49°27' W 003°29'1322.7
2017-Nov-14 07:57N 49°18' W 003°43'3522.5
2017-Nov-14 06:24N 48°54' W 004°22'922.3
2017-Nov-14 06:00N 48°48' W 004°31'1122.0
2017-Nov-14 05:30N 48°40' W 004°43'1121.5
2017-Nov-14 05:00N 48°32' W 004°54'918.0
2017-Nov-14 04:30N 48°25' W 005°03'1019.8
2017-Nov-14 04:00N 48°16' W 005°09'1122.1
2017-Nov-14 03:31N 48°05' W 005°10'1121.8
2017-Nov-14 03:01N 47°54' W 005°07'1122.3
2017-Nov-14 02:30N 47°43' W 005°04'1122.6
2017-Nov-14 02:01N 47°32' W 005°01'1222.4
2017-Nov-14 01:29N 47°21' W 004°57'1123.0
2017-Nov-14 01:00N 47°11' W 004°51'4122.4
2017-Nov-13 23:12N 46°31' W 004°41'  

Dump ship's entire track history